CDT,Max TemperatureF,Mean TemperatureF,Min TemperatureF,Max Dew PointF,MeanDew PointF,Min DewpointF,Max Humidity, Mean Humidity, Min Humidity, Max Sea Level PressureIn, Mean Sea Level PressureIn, Min Sea Level PressureIn, Max VisibilityMiles, Mean VisibilityMiles, Min VisibilityMiles, Max Wind SpeedMPH, Mean Wind SpeedMPH, Max Gust SpeedMPH,PrecipitationIn, CloudCover, Events, WindDirDegrees
2013-10-1,81,66,52,58,55,47,91,67,31,29.99,29.87,29.80,10,10,7,14,3,20,0.00,0,,220
2013-10-2,77,61,45,54,46,35,95,67,23,30.11,30.01,29.91,10,10,4,12,2,,0.00,0,,116
2013-10-3,73,67,61,68,62,53,97,87,68,29.91,29.85,29.79,10,8,0,12,3,20,0.57,4,Fog-Rain,113
2013-10-4,70,66,61,65,63,61,97,90,76,29.95,29.88,29.83,10,8,0,15,4,21,0.24,5,Fog-Rain,97
2013-10-5,70,60,50,66,57,38,92,78,57,29.85,29.81,29.75,10,9,4,14,6,16,0.00,6,Rain,171
2013-10-6,50,46,41,43,41,38,93,79,62,29.80,29.75,29.71,10,10,10,8,2,,0.00,7,,232
2013-10-7,68,56,44,49,44,38,93,71,34,30.06,29.93,29.78,10,10,7,16,5,20,0.00,3,Rain,292
2013-10-8,76,59,42,50,43,38,96,62,26,30.10,30.06,30.01,10,10,7,15,4,21,0.00,0,,150
2013-10-9,73,61,49,49,46,40,90,61,31,30.17,30.12,30.08,10,10,10,8,3,,0.00,0,,129
2013-10-10,74,58,43,53,48,42,97,74,37,30.14,30.07,29.99,10,9,1,9,3,,0.00,0,,123
2013-10-11,75,63,51,56,51,49,93,65,40,29.99,29.90,29.82,10,10,10,18,5,32,0.00,2,,127
2013-10-12,69,57,44,55,42,31,81,54,28,30.21,29.99,29.82,10,10,10,17,8,25,0.00,1,,245
2013-10-13,61,48,35,38,35,29,92,66,30,30.44,30.36,30.21,10,10,10,7,1,,0.00,0,,318
2013-10-14,64,48,33,43,37,32,97,70,35,30.42,30.27,30.04,10,8,0,16,4,22,0.00,2,Fog,109
2013-10-15,59,54,49,55,46,41,91,77,60,30.01,29.83,29.76,10,9,4,14,9,30,0.23,8,Rain,181
2013-10-16,50,48,47,47,44,41,93,83,76,29.96,29.88,29.79,10,9,4,13,8,,0.00,8,,274
2013-10-17,58,50,42,42,39,32,88,71,39,29.93,29.86,29.80,10,10,10,9,2,,0.00,5,,238
2013-10-18,52,46,39,42,35,28,87,69,41,29.96,29.91,29.82,10,10,10,18,6,25,0.00,6,,280
2013-10-19,51,41,32,39,35,31,93,79,53,29.91,29.81,29.74,10,10,10,13,2,22,0.00,4,,227
2013-10-20,52,40,28,46,35,27,94,78,60,29.83,29.77,29.68,10,10,10,21,4,30,0.00,5,Rain,192
2013-10-21,43,35,26,33,25,19,88,62,39,29.99,29.94,29.84,10,10,10,20,12,26,0.00,6,,280
2013-10-22,45,34,24,30,26,22,92,75,45,30.01,29.97,29.92,10,10,10,13,2,21,0.00,3,,318
2013-10-23,42,33,25,31,25,19,92,68,41,30.06,30.02,30.00,10,10,10,16,4,20,0.00,6,,286
2013-10-24,44,35,27,25,22,19,85,58,40,30.34,30.21,30.06,10,10,10,15,7,18,0.00,6,,300
2013-10-25,53,38,23,30,25,22,94,62,32,30.36,30.21,29.92,10,10,10,20,4,28,0.00,2,,211
2013-10-26,51,42,33,34,28,24,81,54,36,30.10,29.97,29.82,10,10,10,20,12,29,0.00,1,,287
2013-10-27,57,41,26,32,28,24,94,70,32,30.07,29.99,29.87,10,10,7,15,2,20,0.00,0,,180
2013-10-28,45,39,33,32,30,28,90,65,55,30.37,30.27,30.04,10,10,7,14,6,21,0.00,6,,58
2013-10-29,55,46,38,38,34,28,71,61,49,30.37,30.22,30.08,10,10,10,12,7,,0.00,6,,95
2013-10-30,61,54,48,53,48,38,95,84,64,30.09,29.92,29.67,10,7,1,17,4,28,0.02,7,Rain,106
2013-10-31,58,49,41,56,47,36,97,89,78,29.66,29.47,29.38,10,7,0,17,6,23,0.43,8,Fog-Rain,269